sensor_id;sensor_type;location;lat;lon;timestamp;pressure;altitude;pressure_sealevel;temperature;humidity
30708;BME280;17458;48.958;8.284;2023-01-29T00:02:04;101645.53;;;4.81;51.64
30708;BME280;17458;48.958;8.284;2023-01-29T00:04:49;101644.03;;;4.93;51.88
30708;BME280;17458;48.958;8.284;2023-01-29T00:07:33;101638.25;;;4.78;51.94
30708;BME280;17458;48.958;8.284;2023-01-29T00:10:17;101634.00;;;4.70;52.02
30708;BME280;17458;48.958;8.284;2023-01-29T00:13:01;101637.78;;;5.01;51.31
30708;BME280;17458;48.958;8.284;2023-01-29T00:15:56;101638.13;;;5.14;51.29
30708;BME280;17458;48.958;8.284;2023-01-29T00:18:40;101642.56;;;5.05;50.94
30708;BME280;17458;48.958;8.284;2023-01-29T00:21:24;101652.59;;;4.90;51.43
30708;BME280;17458;48.958;8.284;2023-01-29T00:24:08;101651.66;;;4.90;52.11
30708;BME280;17458;48.958;8.284;2023-01-29T00:26:52;101640.41;;;4.82;51.29
30708;BME280;17458;48.958;8.284;2023-01-29T00:29:36;101637.13;;;4.47;51.75
30708;BME280;17458;48.958;8.284;2023-01-29T00:32:20;101649.50;;;4.48;52.17
30708;BME280;17458;48.958;8.284;2023-01-29T00:35:05;101643.69;;;4.61;51.88
30708;BME280;17458;48.958;8.284;2023-01-29T00:37:50;101639.19;;;4.79;51.92
30708;BME280;17458;48.958;8.284;2023-01-29T00:40:39;101641.91;;;4.89;51.40
30708;BME280;17458;48.958;8.284;2023-01-29T00:43:42;101645.28;;;4.50;51.52
30708;BME280;17458;48.958;8.284;2023-01-29T00:46:45;101633.06;;;4.32;52.43
30708;BME280;17458;48.958;8.284;2023-01-29T00:49:29;101632.91;;;4.31;52.15
30708;BME280;17458;48.958;8.284;2023-01-29T00:52:13;101631.34;;;4.51;52.50
30708;BME280;17458;48.958;8.284;2023-01-29T00:55:08;101637.94;;;4.38;52.38
30708;BME280;17458;48.958;8.284;2023-01-29T00:57:53;101637.69;;;4.35;52.08
30708;BME280;17458;48.958;8.284;2023-01-29T01:00:36;101642.03;;;4.53;52.18
30708;BME280;17458;48.958;8.284;2023-01-29T01:03:20;101632.72;;;4.56;52.52
30708;BME280;17458;48.958;8.284;2023-01-29T01:06:06;101636.53;;;4.41;52.60
30708;BME280;17458;48.958;8.284;2023-01-29T01:08:51;101637.91;;;4.46;52.77
30708;BME280;17458;48.958;8.284;2023-01-29T01:11:54;101643.91;;;4.73;52.07
30708;BME280;17458;48.958;8.284;2023-01-29T01:14:38;101646.31;;;4.61;52.19
30708;BME280;17458;48.958;8.284;2023-01-29T01:17:26;101653.78;;;4.56;52.28
30708;BME280;17458;48.958;8.284;2023-01-29T01:20:11;101646.81;;;4.57;52.71
30708;BME280;17458;48.958;8.284;2023-01-29T01:22:56;101649.09;;;4.62;51.88
30708;BME280;17458;48.958;8.284;2023-01-29T01:25:40;101652.53;;;4.53;52.39
30708;BME280;17458;48.958;8.284;2023-01-29T01:28:24;101650.00;;;4.44;52.43
30708;BME280;17458;48.958;8.284;2023-01-29T01:31:12;101650.91;;;4.63;52.78
30708;BME280;17458;48.958;8.284;2023-01-29T01:33:56;101659.75;;;4.37;52.45
30708;BME280;17458;48.958;8.284;2023-01-29T01:36:40;101664.41;;;4.12;52.74
30708;BME280;17458;48.958;8.284;2023-01-29T01:39:24;101660.69;;;4.10;52.89
30708;BME280;17458;48.958;8.284;2023-01-29T01:42:11;101664.03;;;3.90;53.74
30708;BME280;17458;48.958;8.284;2023-01-29T01:45:07;101657.19;;;4.28;52.85
30708;BME280;17458;48.958;8.284;2023-01-29T01:48:20;101653.28;;;4.60;52.68
30708;BME280;17458;48.958;8.284;2023-01-29T01:51:06;101644.88;;;4.46;52.61
30708;BME280;17458;48.958;8.284;2023-01-29T01:54:01;101648.28;;;4.63;52.53
30708;BME280;17458;48.958;8.284;2023-01-29T01:56:50;101645.50;;;4.43;53.42
30708;BME280;17458;48.958;8.284;2023-01-29T01:59:39;101640.78;;;4.31;53.15
30708;BME280;17458;48.958;8.284;2023-01-29T02:02:24;101635.34;;;4.56;53.01
30708;BME280;17458;48.958;8.284;2023-01-29T02:05:30;101642.03;;;4.53;52.57
30708;BME280;17458;48.958;8.284;2023-01-29T02:08:57;101645.06;;;4.39;52.55
30708;BME280;17458;48.958;8.284;2023-01-29T02:12:04;101643.84;;;4.35;53.34
30708;BME280;17458;48.958;8.284;2023-01-29T02:14:50;101654.41;;;4.54;52.34
30708;BME280;17458;48.958;8.284;2023-01-29T02:17:34;101637.69;;;4.35;52.75
30708;BME280;17458;48.958;8.284;2023-01-29T02:20:23;101646.16;;;4.59;52.59
30708;BME280;17458;48.958;8.284;2023-01-29T02:23:45;101647.41;;;4.63;52.41
30708;BME280;17458;48.958;8.284;2023-01-29T02:26:44;101652.50;;;4.61;52.81
30708;BME280;17458;48.958;8.284;2023-01-29T02:29:59;101641.91;;;4.24;53.97
30708;BME280;17458;48.958;8.284;2023-01-29T02:32:57;101645.50;;;4.43;53.46
30708;BME280;17458;48.958;8.284;2023-01-29T02:35:55;101647.59;;;4.56;52.97
30708;BME280;17458;48.958;8.284;2023-01-29T02:42:16;101642.81;;;4.52;53.34
30708;BME280;17458;48.958;8.284;2023-01-29T02:45:04;101646.47;;;4.62;52.90
30708;BME280;17458;48.958;8.284;2023-01-29T02:47:58;101634.72;;;4.59;52.42
30708;BME280;17458;48.958;8.284;2023-01-29T02:51:01;101641.88;;;4.51;52.99
30708;BME280;17458;48.958;8.284;2023-01-29T02:54:01;101639.72;;;4.75;52.53
30708;BME280;17458;48.958;8.284;2023-01-29T02:56:53;101631.47;;;4.61;52.88
30708;BME280;17458;48.958;8.284;2023-01-29T02:59:42;101639.06;;;4.58;53.08
30708;BME280;17458;48.958;8.284;2023-01-29T03:02:32;101630.25;;;4.58;53.10
30708;BME280;17458;48.958;8.284;2023-01-29T03:05:24;101628.38;;;4.57;52.90
30708;BME280;17458;48.958;8.284;2023-01-29T03:08:14;101632.16;;;4.23;52.50
30708;BME280;17458;48.958;8.284;2023-01-29T03:11:05;101623.97;;;4.47;52.88
30708;BME280;17458;48.958;8.284;2023-01-29T03:14:08;101622.97;;;4.09;53.53
30708;BME280;17458;48.958;8.284;2023-01-29T03:16:56;101625.56;;;4.18;53.69
30708;BME280;17458;48.958;8.284;2023-01-29T03:19:43;101619.06;;;4.14;53.26
30708;BME280;17458;48.958;8.284;2023-01-29T03:22:39;101621.63;;;4.23;53.44
30708;BME280;17458;48.958;8.284;2023-01-29T03:25:27;101622.69;;;4.34;53.22
30708;BME280;17458;48.958;8.284;2023-01-29T03:28:30;101622.31;;;4.39;53.23
30708;BME280;17458;48.958;8.284;2023-01-29T03:31:35;101621.53;;;4.40;53.02
30708;BME280;17458;48.958;8.284;2023-01-29T03:34:44;101624.38;;;4.52;52.42
30708;BME280;17458;48.958;8.284;2023-01-29T03:37:37;101620.00;;;4.15;53.40
30708;BME280;17458;48.958;8.284;2023-01-29T03:40:23;101628.34;;;4.19;53.67
30708;BME280;17458;48.958;8.284;2023-01-29T03:43:30;101620.97;;;4.34;53.46
30708;BME280;17458;48.958;8.284;2023-01-29T03:46:38;101626.16;;;4.43;53.27
30708;BME280;17458;48.958;8.284;2023-01-29T03:52:41;101625.31;;;4.34;53.32
30708;BME280;17458;48.958;8.284;2023-01-29T03:55:42;101628.66;;;4.41;53.16
30708;BME280;17458;48.958;8.284;2023-01-29T04:01:32;101630.56;;;4.52;53.06
30708;BME280;17458;48.958;8.284;2023-01-29T04:04:26;101638.47;;;4.52;52.77
30708;BME280;17458;48.958;8.284;2023-01-29T04:07:16;101632.13;;;4.50;52.95
30708;BME280;17458;48.958;8.284;2023-01-29T04:10:11;101642.09;;;4.44;53.34
30708;BME280;17458;48.958;8.284;2023-01-29T04:13:03;101636.53;;;4.41;54.21
30708;BME280;17458;48.958;8.284;2023-01-29T04:15:53;101638.38;;;4.42;54.04
30708;BME280;17458;48.958;8.284;2023-01-29T04:18:53;101635.31;;;4.38;53.97
30708;BME280;17458;48.958;8.284;2023-01-29T04:21:46;101639.38;;;4.34;53.66
30708;BME280;17458;48.958;8.284;2023-01-29T04:24:32;101639.09;;;4.04;53.18
30708;BME280;17458;48.958;8.284;2023-01-29T04:30:45;101638.88;;;4.38;53.31
30708;BME280;17458;48.958;8.284;2023-01-29T04:33:34;101641.81;;;4.41;53.09
30708;BME280;17458;48.958;8.284;2023-01-29T04:39:39;101638.25;;;4.41;53.38
30708;BME280;17458;48.958;8.284;2023-01-29T04:42:31;101650.94;;;4.36;53.69
30708;BME280;17458;48.958;8.284;2023-01-29T04:45:31;101651.41;;;4.41;53.43
30708;BME280;17458;48.958;8.284;2023-01-29T04:48:27;101632.22;;;4.42;53.25
30708;BME280;17458;48.958;8.284;2023-01-29T04:51:21;101635.44;;;4.48;53.43
30708;BME280;17458;48.958;8.284;2023-01-29T04:54:42;101632.59;;;4.27;54.29
30708;BME280;17458;48.958;8.284;2023-01-29T05:00:44;101639.84;;;3.75;55.33
30708;BME280;17458;48.958;8.284;2023-01-29T05:03:32;101635.53;;;4.03;54.94
30708;BME280;17458;48.958;8.284;2023-01-29T05:06:19;101640.38;;;3.90;53.85
30708;BME280;17458;48.958;8.284;2023-01-29T05:09:04;101644.03;;;4.01;54.12
30708;BME280;17458;48.958;8.284;2023-01-29T05:11:48;101648.91;;;4.15;53.74
30708;BME280;17458;48.958;8.284;2023-01-29T05:14:34;101657.19;;;4.01;54.02
30708;BME280;17458;48.958;8.284;2023-01-29T05:17:19;101642.25;;;4.18;53.68
30708;BME280;17458;48.958;8.284;2023-01-29T05:20:04;101638.59;;;4.08;53.63
30708;BME280;17458;48.958;8.284;2023-01-29T05:22:48;101629.25;;;4.20;53.55
30708;BME280;17458;48.958;8.284;2023-01-29T05:25:33;101625.72;;;4.19;53.53
30708;BME280;17458;48.958;8.284;2023-01-29T05:28:18;101603.22;;;4.23;53.95
30708;BME280;17458;48.958;8.284;2023-01-29T05:31:01;101605.94;;;4.14;53.74
30708;BME280;17458;48.958;8.284;2023-01-29T05:33:45;101602.06;;;4.11;53.82
30708;BME280;17458;48.958;8.284;2023-01-29T05:36:29;101602.97;;;4.20;53.63
30708;BME280;17458;48.958;8.284;2023-01-29T05:39:13;101614.47;;;3.76;54.71
30708;BME280;17458;48.958;8.284;2023-01-29T05:41:57;101601.44;;;3.86;54.95
30708;BME280;17458;48.958;8.284;2023-01-29T05:44:42;101593.81;;;3.98;54.83
30708;BME280;17458;48.958;8.284;2023-01-29T05:47:26;101607.19;;;3.82;54.29
30708;BME280;17458;48.958;8.284;2023-01-29T05:50:10;101618.13;;;3.86;54.58
30708;BME280;17458;48.958;8.284;2023-01-29T05:52:58;101609.56;;;3.98;54.92
30708;BME280;17458;48.958;8.284;2023-01-29T05:55:43;101615.22;;;3.83;55.11
30708;BME280;17458;48.958;8.284;2023-01-29T05:58:32;101627.84;;;3.60;55.70
30708;BME280;17458;48.958;8.284;2023-01-29T06:01:21;101631.34;;;3.69;55.58
30708;BME280;17458;48.958;8.284;2023-01-29T06:04:06;101628.53;;;3.32;56.35
30708;BME280;17458;48.958;8.284;2023-01-29T06:06:50;101636.84;;;3.81;55.90
30708;BME280;17458;48.958;8.284;2023-01-29T06:09:34;101638.56;;;3.80;55.50
30708;BME280;17458;48.958;8.284;2023-01-29T06:12:18;101641.16;;;3.89;55.58
30708;BME280;17458;48.958;8.284;2023-01-29T06:15:01;101642.19;;;3.64;56.20
30708;BME280;17458;48.958;8.284;2023-01-29T06:17:45;101644.78;;;3.72;56.45
30708;BME280;17458;48.958;8.284;2023-01-29T06:20:29;101642.16;;;3.72;56.94
30708;BME280;17458;48.958;8.284;2023-01-29T06:23:13;101644.72;;;3.89;56.50
30708;BME280;17458;48.958;8.284;2023-01-29T06:26:05;101651.28;;;3.67;57.19
30708;BME280;17458;48.958;8.284;2023-01-29T06:28:49;101641.53;;;3.66;57.33
30708;BME280;17458;48.958;8.284;2023-01-29T06:31:33;101639.88;;;3.58;57.41
30708;BME280;17458;48.958;8.284;2023-01-29T06:34:17;101632.09;;;3.77;57.16
30708;BME280;17458;48.958;8.284;2023-01-29T06:37:01;101624.75;;;3.55;57.79
30708;BME280;17458;48.958;8.284;2023-01-29T06:39:45;101637.31;;;3.85;56.66
30708;BME280;17458;48.958;8.284;2023-01-29T06:42:29;101630.72;;;3.72;56.53
30708;BME280;17458;48.958;8.284;2023-01-29T06:45:13;101628.31;;;3.56;56.96
30708;BME280;17458;48.958;8.284;2023-01-29T06:47:57;101625.44;;;3.27;57.54
30708;BME280;17458;48.958;8.284;2023-01-29T06:50:41;101616.84;;;3.64;57.33
30708;BME280;17458;48.958;8.284;2023-01-29T06:53:25;101618.50;;;3.72;57.02
30708;BME280;17458;48.958;8.284;2023-01-29T06:56:08;101623.16;;;3.75;56.68
30708;BME280;17458;48.958;8.284;2023-01-29T06:58:52;101618.09;;;3.95;56.30
30708;BME280;17458;48.958;8.284;2023-01-29T07:01:40;101624.38;;;3.78;57.41
30708;BME280;17458;48.958;8.284;2023-01-29T07:04:25;101627.63;;;3.76;56.91
30708;BME280;17458;48.958;8.284;2023-01-29T07:07:09;101627.63;;;3.14;58.67
30708;BME280;17458;48.958;8.284;2023-01-29T07:09:56;101635.91;;;3.44;58.04
30708;BME280;17458;48.958;8.284;2023-01-29T07:12:40;101639.78;;;3.48;58.04
30708;BME280;17458;48.958;8.284;2023-01-29T07:15:24;101641.47;;;3.47;58.11
30708;BME280;17458;48.958;8.284;2023-01-29T07:18:08;101640.59;;;3.74;57.24
30708;BME280;17458;48.958;8.284;2023-01-29T07:20:56;101649.97;;;3.89;57.41
30708;BME280;17458;48.958;8.284;2023-01-29T07:23:40;101640.31;;;3.71;57.74
30708;BME280;17458;48.958;8.284;2023-01-29T07:26:24;101640.81;;;3.59;57.69
30708;BME280;17458;48.958;8.284;2023-01-29T07:29:08;101654.81;;;3.76;56.73
30708;BME280;17458;48.958;8.284;2023-01-29T07:31:52;101642.31;;;3.65;56.80
30708;BME280;17458;48.958;8.284;2023-01-29T07:34:36;101642.41;;;3.92;56.52
30708;BME280;17458;48.958;8.284;2023-01-29T07:37:20;101643.59;;;3.60;56.42
30708;BME280;17458;48.958;8.284;2023-01-29T07:40:04;101648.66;;;3.67;56.82
30708;BME280;17458;48.958;8.284;2023-01-29T07:42:57;101650.84;;;3.99;55.79
30708;BME280;17458;48.958;8.284;2023-01-29T07:45:42;101649.06;;;3.89;56.25
30708;BME280;17458;48.958;8.284;2023-01-29T07:48:26;101664.50;;;3.86;56.29
30708;BME280;17458;48.958;8.284;2023-01-29T07:51:10;101680.16;;;4.12;55.71
30708;BME280;17458;48.958;8.284;2023-01-29T07:53:54;101676.34;;;3.55;56.49
30708;BME280;17458;48.958;8.284;2023-01-29T07:56:38;101673.88;;;4.01;55.82
30708;BME280;17458;48.958;8.284;2023-01-29T07:59:22;101685.28;;;4.10;55.57
30708;BME280;17458;48.958;8.284;2023-01-29T08:02:08;101692.22;;;3.74;56.62
30708;BME280;17458;48.958;8.284;2023-01-29T08:04:52;101685.38;;;3.84;56.10
30708;BME280;17458;48.958;8.284;2023-01-29T08:07:36;101686.88;;;3.38;57.73
30708;BME280;17458;48.958;8.284;2023-01-29T08:10:20;101692.28;;;4.01;56.62
30708;BME280;17458;48.958;8.284;2023-01-29T08:13:05;101690.59;;;4.29;55.17
30708;BME280;17458;48.958;8.284;2023-01-29T08:15:49;101693.97;;;4.01;56.03
30708;BME280;17458;48.958;8.284;2023-01-29T08:18:33;101693.00;;;4.09;55.96
30708;BME280;17458;48.958;8.284;2023-01-29T08:21:19;101692.09;;;4.36;55.42
30708;BME280;17458;48.958;8.284;2023-01-29T08:24:03;101694.53;;;4.15;55.15
30708;BME280;17458;48.958;8.284;2023-01-29T08:26:47;101700.72;;;4.16;54.82
30708;BME280;17458;48.958;8.284;2023-01-29T08:29:31;101703.66;;;4.19;54.91
30708;BME280;17458;48.958;8.284;2023-01-29T08:32:15;101707.09;;;4.09;54.83
30708;BME280;17458;48.958;8.284;2023-01-29T08:34:59;101702.84;;;3.84;54.81
30708;BME280;17458;48.958;8.284;2023-01-29T08:37:43;101698.66;;;4.22;54.58
30708;BME280;17458;48.958;8.284;2023-01-29T08:40:28;101698.88;;;4.42;54.33
30708;BME280;17458;48.958;8.284;2023-01-29T08:43:14;101702.03;;;3.49;55.47
30708;BME280;17458;48.958;8.284;2023-01-29T08:45:58;101707.22;;;4.11;55.37
30708;BME280;17458;48.958;8.284;2023-01-29T08:48:42;101705.22;;;3.72;55.02
30708;BME280;17458;48.958;8.284;2023-01-29T08:51:26;101709.25;;;3.60;56.27
30708;BME280;17458;48.958;8.284;2023-01-29T08:54:09;101705.63;;;3.85;54.17
30708;BME280;17458;48.958;8.284;2023-01-29T08:56:54;101695.31;;;3.78;54.89
30708;BME280;17458;48.958;8.284;2023-01-29T08:59:38;101703.47;;;3.81;54.64
30708;BME280;17458;48.958;8.284;2023-01-29T09:02:22;101685.88;;;4.16;53.33
30708;BME280;17458;48.958;8.284;2023-01-29T09:05:07;101679.88;;;4.09;53.10
30708;BME280;17458;48.958;8.284;2023-01-29T09:07:51;101679.84;;;4.63;52.59
30708;BME280;17458;48.958;8.284;2023-01-29T09:10:35;101687.06;;;4.28;52.82
30708;BME280;17458;48.958;8.284;2023-01-29T09:13:19;101683.97;;;4.51;52.30
30708;BME280;17458;48.958;8.284;2023-01-29T09:16:03;101693.56;;;4.51;52.27
30708;BME280;17458;48.958;8.284;2023-01-29T09:18:47;101709.38;;;4.15;53.62
30708;BME280;17458;48.958;8.284;2023-01-29T09:21:31;101716.16;;;3.85;53.98
30708;BME280;17458;48.958;8.284;2023-01-29T09:24:15;101720.84;;;4.43;53.15
30708;BME280;17458;48.958;8.284;2023-01-29T09:27:01;101720.69;;;4.14;53.46
30708;BME280;17458;48.958;8.284;2023-01-29T09:29:44;101711.50;;;4.27;52.88
30708;BME280;17458;48.958;8.284;2023-01-29T09:32:28;101696.50;;;3.90;53.08
30708;BME280;17458;48.958;8.284;2023-01-29T09:35:16;101692.00;;;4.53;52.55
30708;BME280;17458;48.958;8.284;2023-01-29T09:38:00;101672.91;;;4.09;52.81
30708;BME280;17458;48.958;8.284;2023-01-29T09:47:14;101643.34;;;4.85;50.68
30708;BME280;17458;48.958;8.284;2023-01-29T09:53:18;101650.69;;;5.27;49.75
30708;BME280;17458;48.958;8.284;2023-01-29T09:56:05;101646.50;;;5.10;49.46
30708;BME280;17458;48.958;8.284;2023-01-29T09:58:56;101650.56;;;4.69;51.04
30708;BME280;17458;48.958;8.284;2023-01-29T10:01:54;101650.47;;;5.34;49.66
30708;BME280;17458;48.958;8.284;2023-01-29T10:05:11;101647.31;;;5.67;49.11
30708;BME280;17458;48.958;8.284;2023-01-29T10:08:12;101646.66;;;5.98;48.70
30708;BME280;17458;48.958;8.284;2023-01-29T10:11:09;101642.59;;;6.12;47.38
30708;BME280;17458;48.958;8.284;2023-01-29T10:17:36;101652.25;;;5.83;48.04
30708;BME280;17458;48.958;8.284;2023-01-29T10:23:26;101653.59;;;5.88;48.48
30708;BME280;17458;48.958;8.284;2023-01-29T10:26:11;101659.06;;;5.70;49.02
30708;BME280;17458;48.958;8.284;2023-01-29T10:28:57;101659.91;;;6.29;48.44
30708;BME280;17458;48.958;8.284;2023-01-29T10:31:43;101649.09;;;6.36;47.27
30708;BME280;17458;48.958;8.284;2023-01-29T10:34:37;101656.91;;;6.55;47.14
30708;BME280;17458;48.958;8.284;2023-01-29T10:37:33;101658.03;;;6.18;47.64
30708;BME280;17458;48.958;8.284;2023-01-29T10:40:36;101669.81;;;6.31;47.86
30708;BME280;17458;48.958;8.284;2023-01-29T10:43:31;101672.97;;;6.48;47.79
30708;BME280;17458;48.958;8.284;2023-01-29T10:46:26;101678.75;;;6.33;47.34
30708;BME280;17458;48.958;8.284;2023-01-29T10:55:22;101671.91;;;5.47;49.73
30708;BME280;17458;48.958;8.284;2023-01-29T10:58:19;101672.91;;;5.78;49.00
30708;BME280;17458;48.958;8.284;2023-01-29T11:01:04;101661.50;;;6.27;47.73
30708;BME280;17458;48.958;8.284;2023-01-29T11:03:58;101658.88;;;5.88;48.68
30708;BME280;17458;48.958;8.284;2023-01-29T11:06:44;101646.13;;;5.92;47.96
30708;BME280;17458;48.958;8.284;2023-01-29T11:09:33;101642.09;;;6.16;47.97
30708;BME280;17458;48.958;8.284;2023-01-29T11:12:26;101636.03;;;6.48;46.99
30708;BME280;17458;48.958;8.284;2023-01-29T11:15:17;101631.41;;;6.65;46.65
30708;BME280;17458;48.958;8.284;2023-01-29T11:18:13;101620.72;;;6.74;46.72
30708;BME280;17458;48.958;8.284;2023-01-29T11:21:01;101619.38;;;6.79;46.84
30708;BME280;17458;48.958;8.284;2023-01-29T11:23:46;101619.63;;;6.92;46.84
30708;BME280;17458;48.958;8.284;2023-01-29T11:26:34;101613.25;;;7.10;46.00
30708;BME280;17458;48.958;8.284;2023-01-29T11:29:42;101603.00;;;6.93;46.82
30708;BME280;17458;48.958;8.284;2023-01-29T11:32:31;101604.88;;;6.84;46.92
30708;BME280;17458;48.958;8.284;2023-01-29T11:41:13;101593.53;;;6.85;47.15
30708;BME280;17458;48.958;8.284;2023-01-29T11:43:57;101594.31;;;6.74;47.26
30708;BME280;17458;48.958;8.284;2023-01-29T11:46:42;101585.88;;;7.20;46.15
30708;BME280;17458;48.958;8.284;2023-01-29T11:49:31;101579.94;;;7.23;46.07
30708;BME280;17458;48.958;8.284;2023-01-29T11:52:18;101579.56;;;7.50;46.31
30708;BME280;17458;48.958;8.284;2023-01-29T11:55:12;101575.50;;;7.11;47.03
30708;BME280;17458;48.958;8.284;2023-01-29T11:58:15;101568.72;;;6.63;46.86
30708;BME280;17458;48.958;8.284;2023-01-29T12:01:01;101563.91;;;5.67;49.11
30708;BME280;17458;48.958;8.284;2023-01-29T12:03:51;101563.09;;;6.58;48.13
30708;BME280;17458;48.958;8.284;2023-01-29T12:06:41;101546.59;;;6.10;48.50
30708;BME280;17458;48.958;8.284;2023-01-29T12:09:28;101548.47;;;6.31;48.28
30708;BME280;17458;48.958;8.284;2023-01-29T12:12:26;101540.53;;;6.94;47.37
30708;BME280;17458;48.958;8.284;2023-01-29T12:15:17;101539.78;;;6.85;47.74
30708;BME280;17458;48.958;8.284;2023-01-29T12:18:14;101530.91;;;6.01;48.73
30708;BME280;17458;48.958;8.284;2023-01-29T12:21:03;101526.38;;;6.71;47.18
30708;BME280;17458;48.958;8.284;2023-01-29T12:27:00;101514.78;;;7.01;47.31
30708;BME280;17458;48.958;8.284;2023-01-29T12:33:13;101496.94;;;6.67;47.23
30708;BME280;17458;48.958;8.284;2023-01-29T12:36:09;101499.50;;;6.45;48.49
30708;BME280;17458;48.958;8.284;2023-01-29T12:38:57;101487.75;;;6.42;49.17
30708;BME280;17458;48.958;8.284;2023-01-29T12:41:44;101481.53;;;6.51;47.92
30708;BME280;17458;48.958;8.284;2023-01-29T12:45:00;101478.50;;;6.89;49.00
30708;BME280;17458;48.958;8.284;2023-01-29T12:47:59;101464.66;;;7.35;46.95
30708;BME280;17458;48.958;8.284;2023-01-29T12:50:44;101460.00;;;6.89;47.42
30708;BME280;17458;48.958;8.284;2023-01-29T12:54:02;101459.44;;;7.68;46.77
30708;BME280;17458;48.958;8.284;2023-01-29T12:56:52;101468.03;;;6.68;48.29
30708;BME280;17458;48.958;8.284;2023-01-29T12:59:42;101453.41;;;6.52;46.93
30708;BME280;17458;48.958;8.284;2023-01-29T13:02:39;101442.66;;;6.18;47.79
30708;BME280;17458;48.958;8.284;2023-01-29T13:05:37;101436.56;;;7.03;47.49
30708;BME280;17458;48.958;8.284;2023-01-29T13:08:34;101438.53;;;6.84;48.13
30708;BME280;17458;48.958;8.284;2023-01-29T13:11:27;101435.91;;;6.42;47.70
30708;BME280;17458;48.958;8.284;2023-01-29T13:14:20;101430.19;;;7.33;46.51
30708;BME280;17458;48.958;8.284;2023-01-29T13:20:02;101432.03;;;7.34;48.12
30708;BME280;17458;48.958;8.284;2023-01-29T13:22:49;101428.09;;;7.85;46.80
30708;BME280;17458;48.958;8.284;2023-01-29T13:25:35;101426.81;;;7.79;45.14
30708;BME280;17458;48.958;8.284;2023-01-29T13:28:23;101428.78;;;7.82;45.04
30708;BME280;17458;48.958;8.284;2023-01-29T13:31:28;101426.13;;;7.82;45.02
30708;BME280;17458;48.958;8.284;2023-01-29T13:34:18;101427.06;;;7.61;45.15
30708;BME280;17458;48.958;8.284;2023-01-29T13:37:34;101436.09;;;7.19;47.19
30708;BME280;17458;48.958;8.284;2023-01-29T13:40:29;101432.81;;;7.55;45.88
30708;BME280;17458;48.958;8.284;2023-01-29T13:43:20;101424.03;;;7.78;45.97
30708;BME280;17458;48.958;8.284;2023-01-29T13:46:27;101436.13;;;6.55;47.43
30708;BME280;17458;48.958;8.284;2023-01-29T13:49:46;101428.69;;;6.93;47.65
30708;BME280;17458;48.958;8.284;2023-01-29T13:52:58;101432.66;;;7.20;46.00
30708;BME280;17458;48.958;8.284;2023-01-29T13:55:44;101432.56;;;7.30;45.65
30708;BME280;17458;48.958;8.284;2023-01-29T14:01:15;101428.03;;;6.64;48.25
30708;BME280;17458;48.958;8.284;2023-01-29T14:04:23;101423.84;;;7.31;46.77
30708;BME280;17458;48.958;8.284;2023-01-29T14:14:49;101402.91;;;7.23;47.21
30708;BME280;17458;48.958;8.284;2023-01-29T14:18:33;101400.25;;;7.44;46.32
30708;BME280;17458;48.958;8.284;2023-01-29T14:26:32;101398.69;;;7.25;47.45
30708;BME280;17458;48.958;8.284;2023-01-29T14:29:25;101399.28;;;7.32;47.59
30708;BME280;17458;48.958;8.284;2023-01-29T14:32:19;101403.69;;;7.77;47.01
30708;BME280;17458;48.958;8.284;2023-01-29T14:35:23;101394.81;;;7.65;47.45
30708;BME280;17458;48.958;8.284;2023-01-29T14:38:12;101393.34;;;7.46;46.96
30708;BME280;17458;48.958;8.284;2023-01-29T14:41:04;101383.56;;;7.12;47.48
30708;BME280;17458;48.958;8.284;2023-01-29T14:43:49;101386.03;;;7.21;47.34
30708;BME280;17458;48.958;8.284;2023-01-29T14:52:42;101384.53;;;6.81;48.94
30708;BME280;17458;48.958;8.284;2023-01-29T14:55:36;101388.66;;;6.77;48.73
30708;BME280;17458;48.958;8.284;2023-01-29T15:01:36;101394.66;;;6.64;48.56
30708;BME280;17458;48.958;8.284;2023-01-29T15:04:27;101398.25;;;6.87;48.74
30708;BME280;17458;48.958;8.284;2023-01-29T15:10:13;101387.31;;;6.50;50.17
30708;BME280;17458;48.958;8.284;2023-01-29T15:13:23;101400.94;;;6.34;50.20
30708;BME280;17458;48.958;8.284;2023-01-29T15:16:24;101395.69;;;6.66;49.15
30708;BME280;17458;48.958;8.284;2023-01-29T15:19:26;101396.41;;;6.54;50.04
30708;BME280;17458;48.958;8.284;2023-01-29T15:22:19;101392.69;;;6.20;51.83
30708;BME280;17458;48.958;8.284;2023-01-29T15:25:06;101400.00;;;6.02;51.55
30708;BME280;17458;48.958;8.284;2023-01-29T15:27:55;101403.78;;;6.05;51.49
30708;BME280;17458;48.958;8.284;2023-01-29T15:30:41;101401.22;;;6.37;50.51
30708;BME280;17458;48.958;8.284;2023-01-29T15:33:27;101408.50;;;6.20;50.57
30708;BME280;17458;48.958;8.284;2023-01-29T15:36:18;101405.50;;;6.05;51.08
30708;BME280;17458;48.958;8.284;2023-01-29T15:42:14;101403.00;;;6.17;50.57
30708;BME280;17458;48.958;8.284;2023-01-29T15:45:05;101400.00;;;5.61;51.87
30708;BME280;17458;48.958;8.284;2023-01-29T15:47:49;101396.31;;;5.59;51.72
30708;BME280;17458;48.958;8.284;2023-01-29T15:50:35;101393.53;;;5.58;52.07
30708;BME280;17458;48.958;8.284;2023-01-29T15:53:28;101399.31;;;5.54;52.25
30708;BME280;17458;48.958;8.284;2023-01-29T15:56:17;101395.09;;;5.66;51.83
30708;BME280;17458;48.958;8.284;2023-01-29T15:59:03;101402.63;;;5.51;51.36
30708;BME280;17458;48.958;8.284;2023-01-29T16:01:49;101396.28;;;5.49;51.32
30708;BME280;17458;48.958;8.284;2023-01-29T16:04:33;101392.22;;;5.43;51.78
30708;BME280;17458;48.958;8.284;2023-01-29T16:07:17;101402.72;;;5.22;52.40
30708;BME280;17458;48.958;8.284;2023-01-29T16:10:02;101403.53;;;5.52;51.53
30708;BME280;17458;48.958;8.284;2023-01-29T16:12:49;101411.56;;;5.53;51.20
30708;BME280;17458;48.958;8.284;2023-01-29T16:15:36;101405.09;;;5.19;52.36
30708;BME280;17458;48.958;8.284;2023-01-29T16:18:29;101403.00;;;5.35;52.62
30708;BME280;17458;48.958;8.284;2023-01-29T16:21:21;101403.63;;;5.23;52.69
30708;BME280;17458;48.958;8.284;2023-01-29T16:24:09;101405.09;;;5.19;52.26
30708;BME280;17458;48.958;8.284;2023-01-29T16:26:59;101405.47;;;5.24;52.74
30708;BME280;17458;48.958;8.284;2023-01-29T16:29:45;101412.59;;;5.05;52.82